Time;durP1;ratioP1;P1;durP2;ratioP2;P2;SDS_P1;SDS_P2;PMS_P1;PMS_P2;Temp;Humidity;BMP_temperature;BMP_pressure;BME280_temperature;BME280_humidity;BME280_pressure;Samples;Min_cycle;Max_cycle;Signal;HPM_P1;HPM_P2
2022/02/09 00:04:53;;;;;;;0.80;0.80;;;;;;;5.82;38.38;98426.75;5073179;28;20056;-65
2022/02/09 00:07:25;;;;;;;1.80;0.80;;;;;;;5.86;38.09;98435.97;5057982;28;20126;-64
2022/02/09 00:09:51;;;;;;;1.10;0.70;;;;;;;5.97;38.04;98432.25;5055933;28;20044;-65
2022/02/09 00:12:26;;;;;;;0.90;0.83;;;;;;;5.76;37.71;98414.19;5057032;28;20043;-65
2022/02/09 00:17:54;;;;;;;2.43;0.80;;;;;;;5.78;38.07;98399.03;5044169;28;20139;-64
2022/02/09 00:20:51;;;;;;;0.90;0.80;;;;;;;6.09;37.94;98429.16;5060537;28;20044;-64
2022/02/09 00:44:51;;;;;;;1.23;0.80;;;;;;;6.00;37.13;98424.84;5043700;28;20527;-64
2022/02/09 01:57:47;;;;;;;1.80;1.47;;;;;;;4.99;41.34;98443.13;5056244;28;20044;-64
2022/02/09 02:00:14;;;;;;;1.20;1.10;;;;;;;4.79;41.32;98436.38;5088614;28;20136;-64
2022/02/09 02:02:40;;;;;;;1.00;1.00;;;;;;;4.54;41.57;98431.03;5070061;28;20100;-64
2022/02/09 02:05:06;;;;;;;1.10;1.00;;;;;;;4.62;41.48;98431.13;5052199;28;20465;-64
2022/02/09 02:07:45;;;;;;;1.20;1.10;;;;;;;4.63;41.30;98423.06;5068713;28;20059;-63
2022/02/09 02:10:13;;;;;;;1.30;1.00;;;;;;;4.63;41.41;98422.25;5054722;28;20039;-64
2022/02/09 02:18:16;;;;;;;2.50;1.17;;;;;;;4.52;41.69;98406.72;5042436;28;20566;-63
2022/02/09 02:45:38;;;;;;;4.77;1.90;;;;;;;4.87;42.24;98440.88;5041444;28;20040;-64
2022/02/09 02:47:44;;;;;;;2.22;1.80;;;;;;;4.86;42.07;98434.78;5072056;28;20051;-64
2022/02/09 03:17:58;;;;;;;2.60;1.83;;;;;;;5.04;42.79;98430.31;5036978;28;20049;-65
2022/02/09 03:20:33;;;;;;;2.50;1.93;;;;;;;4.98;42.43;98404.63;5035432;28;20056;-64
2022/02/09 03:23:15;;;;;;;3.47;2.10;;;;;;;5.14;42.21;98417.09;5075614;28;20117;-63
2022/02/09 03:47:12;;;;;;;4.87;2.07;;;;;;;5.47;42.00;98436.56;5058748;28;20086;-62
2022/02/09 03:55:10;;;;;;;2.70;1.83;;;;;;;5.59;41.77;98435.31;5059475;28;20043;-65
2022/02/09 03:57:46;;;;;;;1.77;1.67;;;;;;;5.52;41.48;98439.56;5058026;28;20044;-64
2022/02/09 04:00:13;;;;;;;1.60;1.50;;;;;;;5.61;41.01;98443.91;5042556;28;21034;-63
2022/02/09 04:02:45;;;;;;;2.97;1.90;;;;;;;5.90;40.89;98439.97;5073742;28;20054;-66
2022/02/09 04:05:11;;;;;;;1.83;1.70;;;;;;;5.35;40.87;98433.34;5092440;28;20113;-64
2022/02/09 04:07:37;;;;;;;3.67;1.53;;;;;;;5.48;40.70;98406.59;5040961;28;20480;-64
2022/02/09 04:10:05;;;;;;;2.07;1.80;;;;;;;5.83;40.58;98433.66;5057564;28;20036;-64
2022/02/09 04:12:41;;;;;;;3.03;1.83;;;;;;;5.67;40.43;98428.31;5057861;28;20040;-64
2022/02/09 04:36:27;;;;;;;3.43;1.90;;;;;;;5.83;39.25;98411.75;5071794;28;20055;-65
2022/02/09 04:52:13;;;;;;;2.00;1.80;;;;;;;5.54;39.22;98448.09;5072155;28;20764;-63
2022/02/09 04:54:49;;;;;;;2.00;1.90;;;;;;;5.38;39.13;98456.75;5055253;28;20097;-64
2022/02/09 04:57:31;;;;;;;3.23;2.40;;;;;;;5.50;39.82;98447.63;5090534;28;20150;-64
2022/02/09 05:20:56;;;;;;;4.60;2.70;;;;;;;5.50;39.15;98452.88;5053247;28;20058;-63
2022/02/09 05:27:19;;;;;;;4.77;3.37;;;;;;;5.54;39.72;98462.13;5052126;28;20059;-64
2022/02/09 05:29:44;;;;;;;4.93;2.80;;;;;;;5.56;40.02;98462.78;5069812;28;20044;-65
2022/02/09 05:32:10;;;;;;;7.70;4.23;;;;;;;5.56;40.14;98454.91;5068614;28;20394;-63
2022/02/09 05:34:36;;;;;;;8.73;3.60;;;;;;;5.59;40.59;98466.91;5067724;28;20079;-64
2022/02/09 05:37:02;;;;;;;6.53;3.73;;;;;;;5.45;40.71;98468.31;5052112;28;20485;-64
2022/02/09 05:39:28;;;;;;;5.90;3.30;;;;;;;5.51;40.87;98472.13;5051663;28;20207;-65
2022/02/09 05:41:55;;;;;;;4.33;2.80;;;;;;;5.61;40.92;98465.78;5068510;28;20484;-63
2022/02/09 05:44:21;;;;;;;5.37;3.37;;;;;;;5.35;41.20;98472.84;5067957;28;20047;-64
2022/02/09 05:52:04;;;;;;;5.53;3.57;;;;;;;5.33;41.67;98466.91;5069174;28;20048;-64
2022/02/09 05:54:59;;;;;;;5.90;3.60;;;;;;;5.07;41.33;98445.81;5067741;28;20045;-64
2022/02/09 05:59:48;;;;;;;4.33;3.00;;;;;;;5.39;41.57;98460.19;5068981;28;20048;-63
2022/02/09 06:02:16;;;;;;;6.60;3.17;;;;;;;5.34;41.22;98472.97;5069118;28;20048;-63
2022/02/09 06:04:42;;;;;;;7.47;3.20;;;;;;;5.49;41.07;98472.28;5050728;28;20073;-64
2022/02/09 06:07:08;;;;;;;4.37;3.40;;;;;;;5.54;41.10;98474.44;5050939;28;20504;-64
2022/02/09 06:09:36;;;;;;;4.67;3.20;;;;;;;5.46;41.33;98466.50;5051236;28;20082;-64
2022/02/09 06:12:19;;;;;;;4.47;3.20;;;;;;;5.56;41.27;98480.38;5067068;28;20135;-63
2022/02/09 06:15:30;;;;;;;4.40;3.13;;;;;;;5.67;41.02;98473.06;5067633;28;20142;-64
2022/02/09 06:20:31;;;;;;;6.93;3.37;;;;;;;5.49;41.09;98485.44;5053330;28;20424;-64
2022/02/09 06:22:57;;;;;;;5.57;3.33;;;;;;;5.36;41.03;98456.06;5051157;28;20584;-64
2022/02/09 06:25:23;;;;;;;4.33;3.20;;;;;;;5.46;41.33;98484.94;5051222;28;20051;-64
2022/02/09 06:27:50;;;;;;;6.40;3.30;;;;;;;5.53;41.18;98478.91;5068096;28;20544;-64
2022/02/09 06:30:16;;;;;;;5.20;3.43;;;;;;;5.77;40.88;98486.94;5067460;28;20052;-64
2022/02/09 06:32:42;;;;;;;11.13;3.43;;;;;;;5.76;40.83;98489.75;5066923;28;20051;-64
2022/02/09 06:35:08;;;;;;;4.67;3.20;;;;;;;5.74;40.72;98491.69;5050264;28;20048;-63
2022/02/09 06:37:44;;;;;;;4.40;3.43;;;;;;;5.73;41.12;98490.88;5049946;28;20462;-65
2022/02/09 06:40:11;;;;;;;7.60;3.47;;;;;;;5.83;41.00;98507.44;5067324;28;20468;-65
2022/02/09 06:42:39;;;;;;;4.60;3.27;;;;;;;5.36;41.24;98460.50;5050160;28;20062;-67
2022/02/09 06:45:22;;;;;;;6.57;3.60;;;;;;;5.50;41.61;98504.72;5067179;28;20170;-65
2022/02/09 06:47:48;;;;;;;6.73;3.70;;;;;;;5.68;41.62;98498.41;5068212;28;20075;-64
2022/02/09 06:50:36;;;;;;;6.17;3.70;;;;;;;5.74;41.44;98510.13;5033696;28;20036;-65
2022/02/09 06:53:24;;;;;;;8.37;3.97;;;;;;;5.85;40.99;98500.22;5050809;28;20076;-65
2022/02/09 06:55:57;;;;;;;5.67;3.50;;;;;;;5.77;41.04;98484.31;5049741;28;20485;-65
2022/02/09 07:01:05;;;;;;;4.70;3.50;;;;;;;6.10;40.83;98490.63;5044864;28;20401;-65
2022/02/09 07:03:31;;;;;;;8.13;4.37;;;;;;;5.93;40.69;98492.34;5067548;28;20048;-64
2022/02/09 07:05:57;;;;;;;8.17;4.37;;;;;;;6.27;40.61;98527.41;5053825;28;20336;-66
2022/02/09 07:08:23;;;;;;;10.23;5.17;;;;;;;6.35;40.20;98513.47;5087196;28;20071;-64
2022/02/09 07:10:49;;;;;;;7.33;4.03;;;;;;;6.48;40.08;98513.84;5067884;28;20043;-65
2022/02/09 07:13:15;;;;;;;6.93;3.90;;;;;;;6.87;39.87;98518.41;5071833;28;20130;-64
2022/02/09 07:15:49;;;;;;;5.20;3.10;;;;;;;7.11;38.92;98511.50;5078620;28;20178;-65
2022/02/09 07:18:15;;;;;;;8.10;3.73;;;;;;;7.65;38.18;98516.13;5076913;28;20071;-64
2022/02/09 07:23:30;;;;;;;5.53;2.63;;;;;;;7.99;37.31;98519.38;5074799;28;20127;-65
2022/02/09 07:26:14;;;;;;;4.63;2.47;;;;;;;8.26;36.75;98521.63;5075565;28;20032;-70
2022/02/09 07:28:40;;;;;;;8.03;2.67;;;;;;;9.16;35.49;98528.97;5078249;28;20134;-63
2022/02/09 07:31:08;;;;;;;3.08;2.25;;;;;;;10.40;33.10;98523.88;5044398;28;20377;-66
2022/02/09 07:33:38;;;;;;;3.83;2.17;;;;;;;12.20;30.84;98510.97;5065646;28;20033;-62
2022/02/09 07:36:05;;;;;;;6.93;2.25;;;;;;;14.68;26.86;98488.09;5044067;28;20040;-63
2022/02/09 07:38:31;;;;;;;2.95;1.92;;;;;;;16.80;23.93;98518.19;5059135;28;20123;-65
2022/02/09 07:40:59;;;;;;;3.55;2.45;;;;;;;19.47;21.12;98510.91;5058129;28;20127;-71
2022/02/09 07:53:58;;;;;;;3.25;1.90;;;;;;;27.86;14.80;98505.84;5078794;28;20482;-69
2022/02/09 07:56:25;;;;;;;5.82;2.05;;;;;;;28.23;12.37;98511.22;5078891;28;20064;-67
2022/02/09 07:58:51;;;;;;;4.50;1.60;;;;;;;28.72;11.56;98505.19;5080685;28;20032;-66
2022/02/09 08:01:17;;;;;;;3.72;1.73;;;;;;;29.01;10.95;98502.97;5080593;28;20051;-66
2022/02/09 08:03:43;;;;;;;2.50;1.70;;;;;;;28.87;10.25;98502.16;5060540;28;20095;-66
2022/02/09 08:06:09;;;;;;;2.33;1.50;;;;;;;29.21;10.34;98508.06;5079173;28;20131;-65
2022/02/09 08:08:36;;;;;;;3.33;1.75;;;;;;;29.55;10.26;98514.66;5062022;28;20047;-66
2022/02/09 08:35:31;;;;;;;2.20;1.60;;;;;;;31.51;7.92;98495.00;5070282;28;20052;-68
2022/02/09 08:37:58;;;;;;;2.08;1.45;;;;;;;31.43;7.68;98493.88;5053195;28;20036;-76
2022/02/09 08:40:26;;;;;;;2.08;1.50;;;;;;;31.59;7.90;98488.72;5069913;28;20511;-67
2022/02/09 08:42:53;;;;;;;2.38;1.67;;;;;;;31.15;8.12;98482.31;5068848;28;20040;-67
2022/02/09 08:45:19;;;;;;;3.00;1.85;;;;;;;31.52;7.59;98483.72;5069642;28;20049;-67
2022/02/09 08:47:47;;;;;;;2.70;1.85;;;;;;;31.85;7.30;98490.38;5051273;28;20036;-66
2022/02/09 08:50:14;;;;;;;2.83;1.85;;;;;;;32.59;7.06;98474.41;5082703;28;20258;-67
2022/02/09 08:52:40;;;;;;;1.60;1.38;;;;;;;32.76;6.71;98488.09;5071881;28;20482;-67
2022/02/09 08:55:08;;;;;;;1.40;1.30;;;;;;;32.88;6.71;98484.66;5089602;28;20043;-67
2022/02/09 08:57:35;;;;;;;1.88;1.30;;;;;;;32.89;6.47;98467.03;5071763;28;20082;-66
2022/02/09 09:00:08;;;;;;;3.53;1.55;;;;;;;33.21;6.40;98480.13;5088741;28;20047;-67
2022/02/09 09:02:35;;;;;;;1.63;1.30;;;;;;;32.88;6.35;98470.91;5090008;28;20047;-70
2022/02/09 09:05:13;;;;;;;1.25;1.05;;;;;;;32.36;6.25;98486.78;5088635;28;20075;-68
2022/02/09 09:07:39;;;;;;;2.67;1.25;;;;;;;32.76;6.22;98484.53;5089493;28;20050;-68
2022/02/09 10:01:27;;;;;;;2.30;1.20;;;;;;;30.27;7.38;98462.59;5089440;28;20051;-66
2022/02/09 10:04:20;;;;;;;2.53;1.50;;;;;;;28.74;7.76;98449.13;5073762;28;20133;-66
2022/02/09 10:32:52;;;;;;;1.70;1.20;;;;;;;27.32;8.79;98451.00;5048871;28;20051;-70
2022/02/09 10:37:46;;;;;;;1.73;1.10;;;;;;;26.00;9.60;98445.41;5059091;28;20048;-83
2022/02/09 10:40:31;;;;;;;1.52;1.10;;;;;;;26.15;9.53;98447.19;5032380;28;20040;-80
2022/02/09 10:43:01;;;;;;;1.90;1.23;;;;;;;27.12;9.37;98443.06;5049901;28;20048;-78
2022/02/09 10:45:33;;;;;;;1.88;1.50;;;;;;;26.43;9.40;98438.19;5020654;28;20056;-82
2022/02/09 10:48:03;;;;;;;3.40;1.17;;;;;;;26.94;9.54;98435.69;5034492;28;20040;-72
2022/02/09 10:53:01;;;;;;;2.17;1.50;;;;;;;26.93;9.33;98434.06;5069869;28;20051;-75
2022/02/09 10:55:29;;;;;;;2.22;1.63;;;;;;;26.76;9.17;98447.34;5071240;28;20054;-73
2022/02/09 10:57:57;;;;;;;1.58;1.23;;;;;;;26.62;9.44;98440.97;5054269;28;20128;-72
2022/02/09 11:00:25;;;;;;;1.60;1.20;;;;;;;27.06;8.92;98417.78;5086541;28;20052;-75
2022/02/09 11:02:52;;;;;;;1.77;1.27;;;;;;;26.93;8.91;98429.44;5071780;28;20131;-72
2022/02/09 11:05:20;;;;;;;1.55;1.02;;;;;;;27.38;9.10;98436.19;5073453;28;20230;-71
2022/02/09 11:07:47;;;;;;;1.30;1.00;;;;;;;24.83;10.37;98424.69;5057272;28;20418;-71
2022/02/09 11:10:14;;;;;;;3.67;1.40;;;;;;;23.26;11.42;98421.63;5055776;28;20187;-73
2022/02/09 11:12:45;;;;;;;1.90;1.10;;;;;;;22.94;12.27;98440.75;5055721;28;20048;-71
2022/02/09 11:15:17;;;;;;;1.92;1.42;;;;;;;21.98;12.86;98410.75;5056801;28;20526;-71
2022/02/09 11:17:47;;;;;;;1.73;1.13;;;;;;;19.61;14.74;98393.72;5056849;28;20453;-70
2022/02/09 11:20:19;;;;;;;3.20;1.50;;;;;;;19.67;15.29;98443.91;5057200;28;20044;-70
2022/02/09 11:22:46;;;;;;;2.10;1.23;;;;;;;20.43;14.67;98404.59;5071349;28;20456;-71
2022/02/09 11:25:27;;;;;;;1.23;1.08;;;;;;;21.39;13.87;98440.53;5056949;28;20040;-73
2022/02/09 11:28:21;;;;;;;2.65;1.50;;;;;;;20.30;14.30;98442.72;5041688;28;20052;-71
2022/02/09 11:31:23;;;;;;;1.45;1.35;;;;;;;21.27;14.10;98447.16;5061209;28;20568;-71
2022/02/09 11:33:55;;;;;;;2.30;1.40;;;;;;;21.40;13.83;98455.66;5042273;28;20081;-71
2022/02/09 11:36:32;;;;;;;2.03;1.35;;;;;;;21.35;13.91;98449.41;5059906;28;20081;-72
2022/02/09 11:39:09;;;;;;;3.17;1.50;;;;;;;19.07;15.59;98445.50;5078411;28;20054;-71
2022/02/09 11:41:39;;;;;;;3.75;2.15;;;;;;;17.90;16.86;98447.81;5044427;28;20040;-72
2022/02/09 11:44:18;;;;;;;2.47;1.33;;;;;;;17.72;17.61;98464.03;5060027;28;20096;-70
2022/02/09 11:49:50;;;;;;;2.70;1.33;;;;;;;18.64;16.75;98447.06;5076955;28;20103;-70
2022/02/09 12:12:00;;;;;;;1.40;1.30;;;;;;;12.63;23.99;98474.31;5093025;28;20502;-73
2022/02/09 12:19:59;;;;;;;2.95;1.55;;;;;;;11.43;26.15;98450.81;5077145;28;20039;-70
2022/02/09 12:22:29;;;;;;;3.13;1.50;;;;;;;10.59;27.46;98464.91;5078077;28;20050;-73
2022/02/09 12:24:57;;;;;;;1.63;1.30;;;;;;;11.03;27.42;98476.22;5059246;28;20419;-71
2022/02/09 12:27:23;;;;;;;3.92;1.60;;;;;;;10.63;27.61;98474.13;5042729;28;20085;-69
2022/02/09 12:30:03;;;;;;;2.55;1.70;;;;;;;10.81;28.27;98479.03;5073636;28;20036;-73
2022/02/09 12:32:29;;;;;;;2.03;1.60;;;;;;;10.33;28.40;98487.63;5090339;28;20044;-75
2022/02/09 12:34:59;;;;;;;5.55;1.63;;;;;;;10.53;28.85;98492.19;5056131;28;20047;-71
2022/02/09 12:37:27;;;;;;;2.55;1.52;;;;;;;10.53;28.47;98486.06;5074081;28;20044;-72
2022/02/09 12:39:58;;;;;;;2.40;1.60;;;;;;;10.23;28.78;98458.72;5057192;28;20053;-73
2022/02/09 12:42:30;;;;;;;3.35;1.80;;;;;;;10.34;29.28;98492.75;5056271;28;20046;-69
2022/02/09 12:45:06;;;;;;;18.08;2.75;;;;;;;10.45;29.11;98494.13;5056452;28;20046;-75
2022/02/09 12:47:41;;;;;;;5.03;1.92;;;;;;;10.18;29.11;98499.06;5057017;28;20056;-75
2022/02/09 12:50:14;;;;;;;3.53;2.63;;;;;;;9.76;29.80;98501.47;5056991;28;20069;-76
2022/02/09 12:52:42;;;;;;;8.05;1.92;;;;;;;9.38;30.46;98512.25;5071509;28;20058;-76
2022/02/09 12:55:12;;;;;;;4.63;2.30;;;;;;;9.15;30.85;98506.16;5073797;28;20506;-75
2022/02/09 12:58:07;;;;;;;4.30;2.38;;;;;;;9.01;31.56;98510.34;5051680;28;20780;-77
2022/02/09 13:00:40;;;;;;;4.93;2.30;;;;;;;8.69;32.00;98491.22;5089461;28;20044;-73
2022/02/09 13:03:15;;;;;;;4.82;2.60;;;;;;;8.59;32.38;98507.31;5052056;28;20097;-76
2022/02/09 13:05:57;;;;;;;6.50;2.92;;;;;;;8.42;32.88;98517.13;5077942;28;20044;-75
2022/02/09 13:08:26;;;;;;;4.68;2.55;;;;;;;8.20;33.63;98515.19;5072649;28;20131;-78
2022/02/09 13:14:13;;;;;;;7.30;2.53;;;;;;;7.78;34.01;98511.97;5023235;28;20043;-77
2022/02/09 13:16:48;;;;;;;5.90;3.00;;;;;;;7.57;34.55;98514.31;5023499;28;20062;-77
2022/02/09 14:17:04;;;;;;;8.40;3.60;;;;;;;7.27;37.43;98525.56;5030046;28;20104;-72
2022/02/09 14:23:36;;;;;;;4.27;2.93;;;;;;;7.17;37.34;98542.53;5093610;28;20080;-74
2022/02/09 14:47:11;;;;;;;6.33;3.37;;;;;;;6.89;38.00;98527.00;5057551;28;20506;-75
2022/02/09 14:47:44;;;;;;;11.20;4.23;;;;;;;6.86;38.58;98534.38;5060127;28;20044;-75
2022/02/09 14:52:41;;;;;;;8.43;4.90;;;;;;;6.88;38.27;98530.63;5075883;28;20039;-73
2022/02/09 14:58:11;;;;;;;10.40;5.00;;;;;;;6.79;38.24;98526.31;5042452;28;20142;-71
2022/02/09 15:00:52;;;;;;;9.88;5.40;;;;;;;7.03;38.33;98520.25;5061175;28;20028;-72
2022/02/09 15:06:22;;;;;;;12.73;5.90;;;;;;;7.09;37.92;98531.97;5060498;28;20041;-72
2022/02/09 15:16:48;;;;;;;16.77;6.07;;;;;;;7.49;37.90;98550.50;5080094;28;20039;-75
2022/02/09 15:19:26;;;;;;;8.33;4.37;;;;;;;7.46;38.13;98561.38;5047118;28;20513;-72
2022/02/09 15:22:12;;;;;;;9.43;4.53;;;;;;;7.30;38.70;98556.09;5046151;28;20495;-74
2022/02/09 15:24:43;;;;;;;13.67;4.63;;;;;;;7.48;38.43;98556.75;5047068;28;20043;-73
2022/02/09 15:27:17;;;;;;;8.68;3.70;;;;;;;7.64;38.43;98548.84;5051784;28;20081;-73
2022/02/09 15:29:44;;;;;;;8.80;4.00;;;;;;;7.32;38.58;98546.19;5033932;28;20466;-72
2022/02/09 15:34:53;;;;;;;8.93;4.70;;;;;;;7.34;39.16;98544.19;5075962;28;20051;-75
2022/02/09 15:39:50;;;;;;;9.57;5.03;;;;;;;7.30;40.19;98562.22;5036307;28;20048;-78
2022/02/09 16:09:22;;;;;;;11.10;5.27;;;;;;;7.06;44.89;98583.28;5042759;28;20050;-76
2022/02/09 16:22:33;;;;;;;7.97;4.70;;;;;;;7.00;45.08;98572.53;5060185;28;20504;-74
2022/02/09 16:46:37;;;;;;;13.57;6.83;;;;;;;6.53;45.92;98577.50;5062166;28;20506;-74
2022/02/09 16:49:11;;;;;;;14.40;6.77;;;;;;;6.57;46.17;98582.28;5077352;28;20112;-73
2022/02/09 16:51:52;;;;;;;11.80;6.90;;;;;;;6.27;46.71;98566.97;5045494;28;20523;-77
2022/02/09 16:54:32;;;;;;;16.17;7.33;;;;;;;6.40;46.52;98575.28;5061549;28;20044;-75
2022/02/09 17:21:09;;;;;;;13.77;6.63;;;;;;;7.03;45.44;98583.59;5077018;28;20180;-76
2022/02/09 17:23:35;;;;;;;14.57;7.40;;;;;;;7.04;45.57;98585.25;5074950;28;20039;-76
2022/02/09 17:26:00;;;;;;;16.37;7.03;;;;;;;7.09;45.37;98587.41;5059772;28;20411;-76
2022/02/09 17:28:27;;;;;;;15.73;7.43;;;;;;;7.11;45.27;98590.69;5059646;28;20415;-78
2022/02/09 17:36:14;;;;;;;9.50;5.67;;;;;;;7.18;45.62;98571.41;5060849;28;20050;-75
2022/02/09 17:58:29;;;;;;;14.23;6.83;;;;;;;7.14;47.09;98574.53;5059695;28;20039;-76
2022/02/09 18:00:57;;;;;;;28.92;13.18;;;;;;;7.20;46.90;98576.53;5074950;28;20055;-73
2022/02/09 18:03:23;;;;;;;9.83;6.23;;;;;;;7.08;47.11;98570.75;5058013;28;20141;-78
2022/02/09 18:05:55;;;;;;;14.07;7.53;;;;;;;6.94;47.10;98571.38;5058597;28;20403;-73
2022/02/09 18:16:15;;;;;;;13.50;7.53;;;;;;;7.18;46.38;98565.31;5058181;28;20092;-72
2022/02/09 18:42:54;;;;;;;10.47;6.50;;;;;;;6.92;46.22;98565.41;5059800;28;20043;-75
2022/02/09 18:45:35;;;;;;;14.30;6.90;;;;;;;7.05;45.95;98562.31;5062241;28;20181;-73
2022/02/09 18:48:28;;;;;;;10.57;6.57;;;;;;;6.70;45.52;98490.31;5094466;28;20425;-74
2022/02/09 19:30:55;;;;;;;11.87;6.30;;;;;;;7.48;44.60;98583.16;5075418;28;20071;-76
2022/02/09 19:57:56;;;;;;;8.87;5.30;;;;;;;7.27;45.10;98577.53;5096106;28;20054;-73
2022/02/09 20:00:25;;;;;;;11.23;6.30;;;;;;;7.41;44.91;98583.00;5061790;28;20035;-75
2022/02/09 20:02:51;;;;;;;9.50;5.83;;;;;;;7.35;45.13;98580.19;5045355;28;20142;-72
2022/02/09 20:05:22;;;;;;;37.60;18.63;;;;;;;7.45;44.90;98578.22;5045208;28;20471;-71
2022/02/09 20:07:48;;;;;;;8.50;5.75;;;;;;;7.52;44.31;98576.59;5079237;28;20047;-71
2022/02/09 20:10:14;;;;;;;8.70;6.70;;;;;;;7.43;44.81;98569.63;5061756;28;20043;-71
2022/02/09 20:13:00;;;;;;;10.50;5.83;;;;;;;7.42;44.83;98571.47;5061417;28;20036;-73
2022/02/09 20:15:26;;;;;;;9.50;5.77;;;;;;;7.46;44.60;98575.41;5051791;28;20127;-71
2022/02/09 20:17:52;;;;;;;10.63;6.13;;;;;;;7.35;45.19;98585.47;5058227;28;20062;-73
2022/02/09 20:20:25;;;;;;;10.60;6.10;;;;;;;7.45;44.90;98589.63;5033450;28;20047;-74
2022/02/09 20:22:53;;;;;;;18.40;9.77;;;;;;;7.39;45.00;98578.88;5051916;28;20130;-75
2022/02/09 20:25:21;;;;;;;12.03;6.57;;;;;;;7.49;44.90;98584.84;5050453;28;20097;-73
2022/02/09 20:27:51;;;;;;;11.53;6.17;;;;;;;7.41;45.25;98583.00;5082566;28;20040;-73
2022/02/09 20:30:20;;;;;;;9.30;5.77;;;;;;;7.46;44.99;98582.50;5050330;28;20043;-74
2022/02/09 20:32:51;;;;;;;8.00;5.80;;;;;;;7.25;45.16;98574.22;5035118;28;20042;-73
2022/02/09 20:35:20;;;;;;;11.07;6.40;;;;;;;7.32;45.07;98578.69;5049528;28;20048;-72
2022/02/09 20:37:50;;;;;;;8.63;6.10;;;;;;;7.28;45.16;98544.84;5043436;28;20040;-70
2022/02/09 20:40:22;;;;;;;9.27;5.70;;;;;;;7.47;45.00;98576.25;5025230;28;20036;-71
2022/02/09 20:43:00;;;;;;;8.67;6.13;;;;;;;7.27;45.07;98545.84;5042121;28;20032;-72
2022/02/09 20:45:50;;;;;;;8.87;5.63;;;;;;;7.38;45.26;98577.25;5092521;28;20044;-72
2022/02/09 20:48:22;;;;;;;8.90;5.93;;;;;;;7.50;44.87;98575.91;5044648;28;20173;-72
2022/02/09 20:50:48;;;;;;;9.17;5.53;;;;;;;7.33;45.02;98576.88;5041492;28;20135;-72
2022/02/09 20:53:15;;;;;;;21.63;11.70;;;;;;;7.65;44.91;98568.97;5025183;28;20055;-72
2022/02/09 20:55:42;;;;;;;16.27;7.23;;;;;;;7.68;44.79;98572.13;5023612;28;20040;-72
2022/02/09 20:58:09;;;;;;;11.40;6.70;;;;;;;7.60;44.70;98571.28;5074317;28;20083;-72
2022/02/09 21:24:40;;;;;;;13.37;7.13;;;;;;;8.02;43.58;98579.84;5042562;28;20044;-74
2022/02/09 21:57:13;;;;;;;10.03;5.50;;;;;;;7.00;45.93;98589.19;5035039;28;20197;-71
2022/02/09 22:28:40;;;;;;;6.13;4.00;;;;;;;6.71;46.15;98578.22;5040929;28;20167;-71
2022/02/09 22:55:01;;;;;;;6.70;4.00;;;;;;;7.03;45.23;98567.75;5041305;28;20044;-71
2022/02/09 22:57:44;;;;;;;4.87;3.70;;;;;;;6.68;45.69;98568.00;5072750;28;20058;-71
2022/02/09 23:00:30;;;;;;;5.13;3.33;;;;;;;6.99;45.21;98557.69;5024879;28;20043;-72
2022/02/09 23:02:56;;;;;;;6.70;3.93;;;;;;;6.83;45.23;98567.22;5055527;28;20051;-71
2022/02/09 23:08:33;;;;;;;6.87;3.90;;;;;;;6.58;45.30;98564.66;5038958;28;20493;-71
2022/02/09 23:13:58;;;;;;;7.20;3.43;;;;;;;6.47;46.05;98571.03;5039498;28;20051;-72
2022/02/09 23:54:53;;;;;;;3.53;2.43;;;;;;;6.52;44.17;98555.56;5044713;28;20047;-74
